sensor_id;sensor_type;location;lat;lon;timestamp;P1;durP1;ratioP1;P2;durP2;ratioP2
72899;SDS011;61043;52.036;5.566;2022-08-21T00:00:12;5.97;;;3.70;;
72899;SDS011;61043;52.036;5.566;2022-08-21T00:02:47;6.70;;;3.97;;
72899;SDS011;61043;52.036;5.566;2022-08-21T00:05:19;5.93;;;3.85;;
72899;SDS011;61043;52.036;5.566;2022-08-21T00:07:46;7.45;;;4.22;;
72899;SDS011;61043;52.036;5.566;2022-08-21T00:10:13;6.78;;;3.83;;
72899;SDS011;61043;52.036;5.566;2022-08-21T00:12:40;7.97;;;4.22;;
72899;SDS011;61043;52.036;5.566;2022-08-21T00:15:09;7.63;;;4.28;;
72899;SDS011;61043;52.036;5.566;2022-08-21T00:17:36;7.57;;;3.88;;
72899;SDS011;61043;52.036;5.566;2022-08-21T00:20:04;7.40;;;4.13;;
72899;SDS011;61043;52.036;5.566;2022-08-21T00:22:34;6.72;;;3.80;;
72899;SDS011;61043;52.036;5.566;2022-08-21T00:25:02;7.40;;;4.25;;
72899;SDS011;61043;52.036;5.566;2022-08-21T00:27:31;7.65;;;4.45;;
72899;SDS011;61043;52.036;5.566;2022-08-21T00:29:58;5.55;;;4.00;;
72899;SDS011;61043;52.036;5.566;2022-08-21T00:32:25;6.97;;;4.47;;
72899;SDS011;61043;52.036;5.566;2022-08-21T00:34:53;7.90;;;4.60;;
72899;SDS011;61043;52.036;5.566;2022-08-21T00:37:20;7.53;;;4.53;;
72899;SDS011;61043;52.036;5.566;2022-08-21T00:39:47;6.88;;;4.63;;
72899;SDS011;61043;52.036;5.566;2022-08-21T00:42:15;7.60;;;4.50;;
72899;SDS011;61043;52.036;5.566;2022-08-21T00:44:43;8.25;;;4.57;;
72899;SDS011;61043;52.036;5.566;2022-08-21T00:47:10;7.80;;;4.78;;
72899;SDS011;61043;52.036;5.566;2022-08-21T00:49:38;9.60;;;5.35;;
72899;SDS011;61043;52.036;5.566;2022-08-21T00:52:07;8.13;;;4.93;;
72899;SDS011;61043;52.036;5.566;2022-08-21T00:57:16;9.37;;;5.60;;
72899;SDS011;61043;52.036;5.566;2022-08-21T00:59:49;9.68;;;5.43;;
72899;SDS011;61043;52.036;5.566;2022-08-21T01:02:19;8.02;;;5.20;;
72899;SDS011;61043;52.036;5.566;2022-08-21T01:04:46;7.85;;;5.47;;
72899;SDS011;61043;52.036;5.566;2022-08-21T01:07:13;7.85;;;5.38;;
72899;SDS011;61043;52.036;5.566;2022-08-21T01:09:40;7.65;;;5.20;;
72899;SDS011;61043;52.036;5.566;2022-08-21T01:12:07;7.57;;;5.45;;
72899;SDS011;61043;52.036;5.566;2022-08-21T01:14:34;7.78;;;5.35;;
72899;SDS011;61043;52.036;5.566;2022-08-21T01:17:01;10.02;;;6.25;;
72899;SDS011;61043;52.036;5.566;2022-08-21T01:19:30;8.43;;;5.82;;
72899;SDS011;61043;52.036;5.566;2022-08-21T01:21:57;8.18;;;6.10;;
72899;SDS011;61043;52.036;5.566;2022-08-21T01:24:26;8.93;;;5.70;;
72899;SDS011;61043;52.036;5.566;2022-08-21T01:26:52;10.50;;;6.13;;
72899;SDS011;61043;52.036;5.566;2022-08-21T01:32:19;10.20;;;5.95;;
72899;SDS011;61043;52.036;5.566;2022-08-21T01:34:47;8.43;;;5.88;;
72899;SDS011;61043;52.036;5.566;2022-08-21T01:37:16;9.60;;;5.93;;
72899;SDS011;61043;52.036;5.566;2022-08-21T01:39:44;10.13;;;6.03;;
72899;SDS011;61043;52.036;5.566;2022-08-21T01:42:11;10.10;;;5.90;;
72899;SDS011;61043;52.036;5.566;2022-08-21T01:44:39;7.85;;;5.70;;
72899;SDS011;61043;52.036;5.566;2022-08-21T01:47:07;8.40;;;5.40;;
72899;SDS011;61043;52.036;5.566;2022-08-21T01:49:37;8.20;;;5.50;;
72899;SDS011;61043;52.036;5.566;2022-08-21T01:52:05;8.20;;;5.47;;
72899;SDS011;61043;52.036;5.566;2022-08-21T01:54:34;15.80;;;6.40;;
72899;SDS011;61043;52.036;5.566;2022-08-21T01:57:02;9.82;;;6.22;;
72899;SDS011;61043;52.036;5.566;2022-08-21T01:59:29;10.30;;;6.40;;
72899;SDS011;61043;52.036;5.566;2022-08-21T02:01:56;8.95;;;6.40;;
72899;SDS011;61043;52.036;5.566;2022-08-21T02:04:23;9.52;;;6.22;;
72899;SDS011;61043;52.036;5.566;2022-08-21T02:06:50;9.40;;;6.13;;
72899;SDS011;61043;52.036;5.566;2022-08-21T02:09:17;9.05;;;5.80;;
72899;SDS011;61043;52.036;5.566;2022-08-21T02:11:45;9.23;;;5.78;;
72899;SDS011;61043;52.036;5.566;2022-08-21T02:14:13;7.28;;;5.70;;
72899;SDS011;61043;52.036;5.566;2022-08-21T02:16:57;8.60;;;6.22;;
72899;SDS011;61043;52.036;5.566;2022-08-21T02:19:35;8.55;;;6.18;;
72899;SDS011;61043;52.036;5.566;2022-08-21T02:22:05;13.43;;;7.05;;
72899;SDS011;61043;52.036;5.566;2022-08-21T02:24:32;8.57;;;6.20;;
72899;SDS011;61043;52.036;5.566;2022-08-21T02:26:59;10.55;;;6.30;;
72899;SDS011;61043;52.036;5.566;2022-08-21T02:29:25;10.75;;;6.53;;
72899;SDS011;61043;52.036;5.566;2022-08-21T02:31:52;12.82;;;7.00;;
72899;SDS011;61043;52.036;5.566;2022-08-21T02:34:19;8.82;;;6.28;;
72899;SDS011;61043;52.036;5.566;2022-08-21T02:36:45;8.68;;;6.18;;
72899;SDS011;61043;52.036;5.566;2022-08-21T02:39:24;9.98;;;6.70;;
72899;SDS011;61043;52.036;5.566;2022-08-21T02:41:52;9.85;;;6.57;;
72899;SDS011;61043;52.036;5.566;2022-08-21T02:44:19;12.25;;;6.60;;
72899;SDS011;61043;52.036;5.566;2022-08-21T02:46:55;11.45;;;7.22;;
72899;SDS011;61043;52.036;5.566;2022-08-21T02:49:21;10.68;;;7.20;;
72899;SDS011;61043;52.036;5.566;2022-08-21T02:51:48;9.27;;;6.32;;
72899;SDS011;61043;52.036;5.566;2022-08-21T02:54:14;8.02;;;6.32;;
72899;SDS011;61043;52.036;5.566;2022-08-21T02:56:41;10.20;;;7.00;;
72899;SDS011;61043;52.036;5.566;2022-08-21T02:59:08;9.07;;;6.47;;
72899;SDS011;61043;52.036;5.566;2022-08-21T03:01:34;8.80;;;6.30;;
72899;SDS011;61043;52.036;5.566;2022-08-21T03:04:02;9.98;;;6.60;;
72899;SDS011;61043;52.036;5.566;2022-08-21T03:06:29;7.88;;;5.97;;
72899;SDS011;61043;52.036;5.566;2022-08-21T03:08:55;8.85;;;5.90;;
72899;SDS011;61043;52.036;5.566;2022-08-21T03:11:23;8.18;;;6.28;;
72899;SDS011;61043;52.036;5.566;2022-08-21T03:13:50;9.45;;;5.78;;
72899;SDS011;61043;52.036;5.566;2022-08-21T03:16:16;9.68;;;6.20;;
72899;SDS011;61043;52.036;5.566;2022-08-21T03:18:45;9.52;;;6.15;;
72899;SDS011;61043;52.036;5.566;2022-08-21T03:21:12;8.57;;;6.28;;
72899;SDS011;61043;52.036;5.566;2022-08-21T03:23:39;8.68;;;6.18;;
72899;SDS011;61043;52.036;5.566;2022-08-21T03:26:09;7.80;;;5.70;;
72899;SDS011;61043;52.036;5.566;2022-08-21T03:28:36;7.85;;;5.75;;
72899;SDS011;61043;52.036;5.566;2022-08-21T03:31:04;10.05;;;6.15;;
72899;SDS011;61043;52.036;5.566;2022-08-21T03:33:32;8.02;;;5.78;;
72899;SDS011;61043;52.036;5.566;2022-08-21T03:36:03;10.95;;;6.28;;
72899;SDS011;61043;52.036;5.566;2022-08-21T03:38:32;9.48;;;5.85;;
72899;SDS011;61043;52.036;5.566;2022-08-21T03:41:01;10.70;;;6.30;;
72899;SDS011;61043;52.036;5.566;2022-08-21T03:43:28;8.30;;;5.75;;
72899;SDS011;61043;52.036;5.566;2022-08-21T03:45:57;9.88;;;6.40;;
72899;SDS011;61043;52.036;5.566;2022-08-21T03:48:25;7.95;;;6.05;;
72899;SDS011;61043;52.036;5.566;2022-08-21T03:50:51;9.80;;;6.30;;
72899;SDS011;61043;52.036;5.566;2022-08-21T03:53:18;11.40;;;5.80;;
72899;SDS011;61043;52.036;5.566;2022-08-21T03:55:45;9.85;;;6.38;;
72899;SDS011;61043;52.036;5.566;2022-08-21T03:58:14;9.02;;;6.05;;
72899;SDS011;61043;52.036;5.566;2022-08-21T04:00:46;10.45;;;6.15;;
72899;SDS011;61043;52.036;5.566;2022-08-21T04:03:16;8.10;;;6.32;;
72899;SDS011;61043;52.036;5.566;2022-08-21T04:05:43;8.80;;;6.45;;
72899;SDS011;61043;52.036;5.566;2022-08-21T04:08:12;8.98;;;5.75;;
72899;SDS011;61043;52.036;5.566;2022-08-21T04:10:40;10.50;;;6.18;;
72899;SDS011;61043;52.036;5.566;2022-08-21T04:13:07;10.65;;;6.32;;
72899;SDS011;61043;52.036;5.566;2022-08-21T04:15:34;10.63;;;6.38;;
72899;SDS011;61043;52.036;5.566;2022-08-21T04:18:02;9.38;;;6.35;;
72899;SDS011;61043;52.036;5.566;2022-08-21T04:20:29;10.93;;;6.43;;
72899;SDS011;61043;52.036;5.566;2022-08-21T04:22:57;11.05;;;5.68;;
72899;SDS011;61043;52.036;5.566;2022-08-21T04:25:24;8.95;;;5.93;;
72899;SDS011;61043;52.036;5.566;2022-08-21T04:27:53;11.18;;;6.38;;
72899;SDS011;61043;52.036;5.566;2022-08-21T04:30:20;10.63;;;6.60;;
72899;SDS011;61043;52.036;5.566;2022-08-21T04:32:54;8.38;;;6.10;;
72899;SDS011;61043;52.036;5.566;2022-08-21T04:35:22;9.63;;;5.93;;
72899;SDS011;61043;52.036;5.566;2022-08-21T04:37:50;12.48;;;6.82;;
72899;SDS011;61043;52.036;5.566;2022-08-21T04:40:17;11.02;;;7.20;;
72899;SDS011;61043;52.036;5.566;2022-08-21T04:42:47;9.63;;;7.13;;
72899;SDS011;61043;52.036;5.566;2022-08-21T04:45:42;11.23;;;6.70;;
72899;SDS011;61043;52.036;5.566;2022-08-21T04:48:11;10.50;;;6.20;;
72899;SDS011;61043;52.036;5.566;2022-08-21T04:53:37;12.32;;;6.45;;
72899;SDS011;61043;52.036;5.566;2022-08-21T04:56:29;10.85;;;7.15;;
72899;SDS011;61043;52.036;5.566;2022-08-21T04:58:58;11.07;;;7.35;;
72899;SDS011;61043;52.036;5.566;2022-08-21T05:01:30;11.23;;;6.00;;
72899;SDS011;61043;52.036;5.566;2022-08-21T05:04:02;13.25;;;6.78;;
72899;SDS011;61043;52.036;5.566;2022-08-21T05:06:31;7.07;;;5.88;;
72899;SDS011;61043;52.036;5.566;2022-08-21T05:09:00;13.32;;;6.93;;
72899;SDS011;61043;52.036;5.566;2022-08-21T05:11:29;9.77;;;6.07;;
72899;SDS011;61043;52.036;5.566;2022-08-21T05:13:56;11.57;;;6.78;;
72899;SDS011;61043;52.036;5.566;2022-08-21T05:16:23;11.60;;;7.63;;
72899;SDS011;61043;52.036;5.566;2022-08-21T05:19:03;11.90;;;7.43;;
72899;SDS011;61043;52.036;5.566;2022-08-21T05:21:31;13.32;;;7.40;;
72899;SDS011;61043;52.036;5.566;2022-08-21T05:23:59;10.63;;;7.25;;
72899;SDS011;61043;52.036;5.566;2022-08-21T05:26:25;11.40;;;6.25;;
72899;SDS011;61043;52.036;5.566;2022-08-21T05:28:53;8.63;;;6.70;;
72899;SDS011;61043;52.036;5.566;2022-08-21T05:31:22;10.15;;;7.22;;
72899;SDS011;61043;52.036;5.566;2022-08-21T05:33:48;11.63;;;8.00;;
72899;SDS011;61043;52.036;5.566;2022-08-21T05:36:17;12.88;;;7.90;;
72899;SDS011;61043;52.036;5.566;2022-08-21T05:38:44;9.50;;;6.72;;
72899;SDS011;61043;52.036;5.566;2022-08-21T05:41:10;12.38;;;7.85;;
72899;SDS011;61043;52.036;5.566;2022-08-21T05:43:37;9.60;;;7.03;;
72899;SDS011;61043;52.036;5.566;2022-08-21T05:46:05;9.00;;;6.38;;
72899;SDS011;61043;52.036;5.566;2022-08-21T05:48:34;11.10;;;6.93;;
72899;SDS011;61043;52.036;5.566;2022-08-21T05:51:06;9.95;;;6.75;;
72899;SDS011;61043;52.036;5.566;2022-08-21T05:53:35;10.70;;;7.47;;
72899;SDS011;61043;52.036;5.566;2022-08-21T05:56:02;10.98;;;6.03;;
72899;SDS011;61043;52.036;5.566;2022-08-21T05:58:30;11.93;;;6.53;;
72899;SDS011;61043;52.036;5.566;2022-08-21T06:00:59;11.90;;;6.97;;
72899;SDS011;61043;52.036;5.566;2022-08-21T06:03:29;9.25;;;5.65;;
72899;SDS011;61043;52.036;5.566;2022-08-21T06:05:57;10.90;;;5.82;;
72899;SDS011;61043;52.036;5.566;2022-08-21T06:08:24;9.75;;;5.93;;
72899;SDS011;61043;52.036;5.566;2022-08-21T06:10:52;12.70;;;6.10;;
72899;SDS011;61043;52.036;5.566;2022-08-21T06:13:19;10.45;;;6.22;;
72899;SDS011;61043;52.036;5.566;2022-08-21T06:15:46;10.75;;;5.55;;
72899;SDS011;61043;52.036;5.566;2022-08-21T06:18:13;9.55;;;5.25;;
72899;SDS011;61043;52.036;5.566;2022-08-21T06:20:40;16.15;;;6.13;;
72899;SDS011;61043;52.036;5.566;2022-08-21T06:23:07;10.93;;;5.43;;
72899;SDS011;61043;52.036;5.566;2022-08-21T06:25:34;17.27;;;5.88;;
72899;SDS011;61043;52.036;5.566;2022-08-21T06:28:02;9.40;;;4.72;;
72899;SDS011;61043;52.036;5.566;2022-08-21T06:30:37;12.23;;;5.18;;
72899;SDS011;61043;52.036;5.566;2022-08-21T06:33:05;11.80;;;4.90;;
72899;SDS011;61043;52.036;5.566;2022-08-21T06:35:33;10.93;;;5.32;;
72899;SDS011;61043;52.036;5.566;2022-08-21T06:38:01;9.38;;;4.68;;
72899;SDS011;61043;52.036;5.566;2022-08-21T06:40:28;10.65;;;4.88;;
72899;SDS011;61043;52.036;5.566;2022-08-21T06:43:07;11.48;;;5.30;;
72899;SDS011;61043;52.036;5.566;2022-08-21T06:45:40;14.10;;;5.03;;
72899;SDS011;61043;52.036;5.566;2022-08-21T06:48:07;12.07;;;5.68;;
72899;SDS011;61043;52.036;5.566;2022-08-21T06:50:34;11.23;;;5.60;;
72899;SDS011;61043;52.036;5.566;2022-08-21T06:53:05;12.50;;;5.10;;
72899;SDS011;61043;52.036;5.566;2022-08-21T06:55:34;9.18;;;4.50;;
72899;SDS011;61043;52.036;5.566;2022-08-21T06:58:00;16.85;;;6.13;;
72899;SDS011;61043;52.036;5.566;2022-08-21T07:00:27;16.23;;;6.00;;
72899;SDS011;61043;52.036;5.566;2022-08-21T07:02:54;13.70;;;6.10;;
72899;SDS011;61043;52.036;5.566;2022-08-21T07:05:21;17.05;;;6.10;;
72899;SDS011;61043;52.036;5.566;2022-08-21T07:07:50;9.63;;;4.90;;
72899;SDS011;61043;52.036;5.566;2022-08-21T07:10:17;15.60;;;6.40;;
72899;SDS011;61043;52.036;5.566;2022-08-21T07:12:47;13.45;;;6.57;;
72899;SDS011;61043;52.036;5.566;2022-08-21T07:15:16;12.43;;;5.13;;
72899;SDS011;61043;52.036;5.566;2022-08-21T07:17:45;13.88;;;5.80;;
72899;SDS011;61043;52.036;5.566;2022-08-21T07:20:12;13.38;;;5.35;;
72899;SDS011;61043;52.036;5.566;2022-08-21T07:22:39;12.82;;;5.32;;
72899;SDS011;61043;52.036;5.566;2022-08-21T07:25:07;13.07;;;5.15;;
72899;SDS011;61043;52.036;5.566;2022-08-21T07:27:34;11.63;;;5.72;;
72899;SDS011;61043;52.036;5.566;2022-08-21T07:30:01;11.77;;;5.03;;
72899;SDS011;61043;52.036;5.566;2022-08-21T07:32:27;13.48;;;5.68;;
72899;SDS011;61043;52.036;5.566;2022-08-21T07:34:54;14.65;;;5.55;;
72899;SDS011;61043;52.036;5.566;2022-08-21T07:37:21;15.18;;;5.65;;
72899;SDS011;61043;52.036;5.566;2022-08-21T07:39:47;13.85;;;5.60;;
72899;SDS011;61043;52.036;5.566;2022-08-21T07:42:15;14.50;;;6.18;;
72899;SDS011;61043;52.036;5.566;2022-08-21T07:44:42;11.70;;;5.60;;
72899;SDS011;61043;52.036;5.566;2022-08-21T07:47:09;16.13;;;5.72;;
72899;SDS011;61043;52.036;5.566;2022-08-21T07:49:36;14.63;;;5.80;;
72899;SDS011;61043;52.036;5.566;2022-08-21T07:52:02;12.43;;;5.05;;
72899;SDS011;61043;52.036;5.566;2022-08-21T07:54:29;10.45;;;5.10;;
72899;SDS011;61043;52.036;5.566;2022-08-21T07:56:59;13.95;;;5.97;;
72899;SDS011;61043;52.036;5.566;2022-08-21T07:59:26;13.57;;;5.60;;
72899;SDS011;61043;52.036;5.566;2022-08-21T08:01:52;17.27;;;5.50;;
72899;SDS011;61043;52.036;5.566;2022-08-21T08:04:19;19.02;;;6.60;;
72899;SDS011;61043;52.036;5.566;2022-08-21T08:06:51;14.65;;;5.75;;
72899;SDS011;61043;52.036;5.566;2022-08-21T08:09:18;13.52;;;4.70;;
72899;SDS011;61043;52.036;5.566;2022-08-21T08:11:44;12.70;;;5.55;;
72899;SDS011;61043;52.036;5.566;2022-08-21T08:14:11;13.95;;;5.40;;
72899;SDS011;61043;52.036;5.566;2022-08-21T08:16:38;16.33;;;5.63;;
72899;SDS011;61043;52.036;5.566;2022-08-21T08:19:05;15.90;;;5.72;;
72899;SDS011;61043;52.036;5.566;2022-08-21T08:21:32;13.98;;;5.43;;
72899;SDS011;61043;52.036;5.566;2022-08-21T08:24:00;18.98;;;6.15;;
72899;SDS011;61043;52.036;5.566;2022-08-21T08:26:44;13.98;;;5.38;;
72899;SDS011;61043;52.036;5.566;2022-08-21T08:29:18;13.75;;;5.50;;
72899;SDS011;61043;52.036;5.566;2022-08-21T08:31:45;12.20;;;4.43;;
72899;SDS011;61043;52.036;5.566;2022-08-21T08:34:11;10.98;;;5.40;;
72899;SDS011;61043;52.036;5.566;2022-08-21T08:36:50;15.15;;;4.95;;
72899;SDS011;61043;52.036;5.566;2022-08-21T08:39:17;17.15;;;5.30;;
72899;SDS011;61043;52.036;5.566;2022-08-21T08:42:06;13.38;;;5.32;;
72899;SDS011;61043;52.036;5.566;2022-08-21T08:45:00;11.07;;;4.47;;
72899;SDS011;61043;52.036;5.566;2022-08-21T08:47:31;10.65;;;5.10;;
72899;SDS011;61043;52.036;5.566;2022-08-21T08:50:09;13.57;;;4.30;;
72899;SDS011;61043;52.036;5.566;2022-08-21T08:52:40;11.60;;;4.05;;
72899;SDS011;61043;52.036;5.566;2022-08-21T08:55:16;16.42;;;5.13;;
72899;SDS011;61043;52.036;5.566;2022-08-21T09:00:20;14.43;;;4.30;;
72899;SDS011;61043;52.036;5.566;2022-08-21T09:02:47;13.23;;;3.78;;
72899;SDS011;61043;52.036;5.566;2022-08-21T09:05:24;12.77;;;3.70;;
72899;SDS011;61043;52.036;5.566;2022-08-21T09:19:25;10.43;;;4.00;;
72899;SDS011;61043;52.036;5.566;2022-08-21T09:27:37;7.63;;;3.03;;
72899;SDS011;61043;52.036;5.566;2022-08-21T09:30:04;11.25;;;3.15;;
72899;SDS011;61043;52.036;5.566;2022-08-21T09:32:33;9.85;;;3.17;;
72899;SDS011;61043;52.036;5.566;2022-08-21T09:37:34;8.90;;;3.00;;
72899;SDS011;61043;52.036;5.566;2022-08-21T09:43:22;7.90;;;2.75;;
72899;SDS011;61043;52.036;5.566;2022-08-21T09:45:48;9.82;;;2.90;;
72899;SDS011;61043;52.036;5.566;2022-08-21T09:48:26;9.55;;;3.72;;
72899;SDS011;61043;52.036;5.566;2022-08-21T09:51:05;7.68;;;3.08;;
72899;SDS011;61043;52.036;5.566;2022-08-21T09:53:37;7.70;;;3.03;;
72899;SDS011;61043;52.036;5.566;2022-08-21T10:02:20;10.43;;;3.53;;
72899;SDS011;61043;52.036;5.566;2022-08-21T10:04:51;5.72;;;2.25;;
72899;SDS011;61043;52.036;5.566;2022-08-21T10:07:23;11.70;;;3.17;;
72899;SDS011;61043;52.036;5.566;2022-08-21T10:09:59;9.30;;;2.50;;
72899;SDS011;61043;52.036;5.566;2022-08-21T10:21:09;13.45;;;3.10;;
72899;SDS011;61043;52.036;5.566;2022-08-21T10:26:20;7.13;;;2.70;;
72899;SDS011;61043;52.036;5.566;2022-08-21T10:28:57;8.43;;;2.78;;
72899;SDS011;61043;52.036;5.566;2022-08-21T10:34:34;8.70;;;2.83;;
72899;SDS011;61043;52.036;5.566;2022-08-21T10:42:21;6.90;;;2.80;;
72899;SDS011;61043;52.036;5.566;2022-08-21T10:47:41;9.48;;;3.20;;
72899;SDS011;61043;52.036;5.566;2022-08-21T10:50:41;7.13;;;2.53;;
72899;SDS011;61043;52.036;5.566;2022-08-21T10:53:28;7.07;;;2.67;;
72899;SDS011;61043;52.036;5.566;2022-08-21T10:56:19;8.10;;;3.25;;
72899;SDS011;61043;52.036;5.566;2022-08-21T11:01:38;8.23;;;3.20;;
72899;SDS011;61043;52.036;5.566;2022-08-21T11:04:19;9.13;;;3.30;;
72899;SDS011;61043;52.036;5.566;2022-08-21T11:07:06;8.73;;;3.20;;
72899;SDS011;61043;52.036;5.566;2022-08-21T11:10:02;5.60;;;2.50;;
72899;SDS011;61043;52.036;5.566;2022-08-21T11:15:23;5.90;;;2.75;;
72899;SDS011;61043;52.036;5.566;2022-08-21T11:18:15;7.32;;;2.78;;
72899;SDS011;61043;52.036;5.566;2022-08-21T11:20:51;6.20;;;2.50;;
72899;SDS011;61043;52.036;5.566;2022-08-21T11:23:38;6.18;;;2.50;;
72899;SDS011;61043;52.036;5.566;2022-08-21T11:26:23;7.15;;;2.70;;
72899;SDS011;61043;52.036;5.566;2022-08-21T11:29:01;8.63;;;2.60;;
72899;SDS011;61043;52.036;5.566;2022-08-21T11:34:39;9.80;;;2.97;;
72899;SDS011;61043;52.036;5.566;2022-08-21T11:39:50;7.10;;;2.50;;
72899;SDS011;61043;52.036;5.566;2022-08-21T11:42:36;6.65;;;2.63;;
72899;SDS011;61043;52.036;5.566;2022-08-21T11:45:26;8.70;;;2.78;;
72899;SDS011;61043;52.036;5.566;2022-08-21T11:50:46;6.55;;;2.30;;
72899;SDS011;61043;52.036;5.566;2022-08-21T11:54:00;5.70;;;2.05;;
72899;SDS011;61043;52.036;5.566;2022-08-21T11:56:21;5.15;;;2.30;;
72899;SDS011;61043;52.036;5.566;2022-08-21T11:58:55;5.53;;;2.45;;
72899;SDS011;61043;52.036;5.566;2022-08-21T12:01:25;6.20;;;2.38;;
72899;SDS011;61043;52.036;5.566;2022-08-21T12:04:10;6.53;;;2.28;;
72899;SDS011;61043;52.036;5.566;2022-08-21T12:06:44;5.90;;;2.30;;
72899;SDS011;61043;52.036;5.566;2022-08-21T12:12:01;5.15;;;1.92;;
72899;SDS011;61043;52.036;5.566;2022-08-21T12:15:03;4.40;;;2.30;;
72899;SDS011;61043;52.036;5.566;2022-08-21T12:23:30;4.03;;;2.50;;
72899;SDS011;61043;52.036;5.566;2022-08-21T12:25:59;9.75;;;2.80;;
72899;SDS011;61043;52.036;5.566;2022-08-21T12:28:27;7.82;;;2.90;;
72899;SDS011;61043;52.036;5.566;2022-08-21T12:30:56;5.87;;;2.40;;
72899;SDS011;61043;52.036;5.566;2022-08-21T12:33:26;5.82;;;3.20;;
72899;SDS011;61043;52.036;5.566;2022-08-21T12:38:49;9.55;;;3.08;;
72899;SDS011;61043;52.036;5.566;2022-08-21T12:41:20;7.43;;;2.85;;
72899;SDS011;61043;52.036;5.566;2022-08-21T12:43:56;6.43;;;2.78;;
72899;SDS011;61043;52.036;5.566;2022-08-21T12:46:36;5.30;;;2.83;;
72899;SDS011;61043;52.036;5.566;2022-08-21T12:49:26;6.97;;;2.97;;
72899;SDS011;61043;52.036;5.566;2022-08-21T12:52:12;5.45;;;2.90;;
72899;SDS011;61043;52.036;5.566;2022-08-21T12:54:46;5.93;;;2.83;;
72899;SDS011;61043;52.036;5.566;2022-08-21T12:57:23;7.88;;;2.92;;
72899;SDS011;61043;52.036;5.566;2022-08-21T12:59:58;5.78;;;2.80;;
72899;SDS011;61043;52.036;5.566;2022-08-21T13:02:29;8.68;;;3.10;;
72899;SDS011;61043;52.036;5.566;2022-08-21T13:05:01;4.32;;;2.60;;
72899;SDS011;61043;52.036;5.566;2022-08-21T13:07:31;6.65;;;2.70;;
72899;SDS011;61043;52.036;5.566;2022-08-21T13:10:05;6.90;;;2.40;;
72899;SDS011;61043;52.036;5.566;2022-08-21T13:12:40;6.75;;;2.70;;
72899;SDS011;61043;52.036;5.566;2022-08-21T13:15:08;6.10;;;2.38;;
72899;SDS011;61043;52.036;5.566;2022-08-21T13:17:36;5.45;;;2.50;;
72899;SDS011;61043;52.036;5.566;2022-08-21T13:20:18;4.40;;;2.15;;
72899;SDS011;61043;52.036;5.566;2022-08-21T13:22:51;3.97;;;2.20;;
72899;SDS011;61043;52.036;5.566;2022-08-21T13:25:18;6.40;;;2.10;;
72899;SDS011;61043;52.036;5.566;2022-08-21T13:27:57;12.25;;;2.47;;
72899;SDS011;61043;52.036;5.566;2022-08-21T13:32:55;6.05;;;2.47;;
72899;SDS011;61043;52.036;5.566;2022-08-21T13:35:30;6.30;;;2.60;;
72899;SDS011;61043;52.036;5.566;2022-08-21T13:38:19;6.55;;;2.10;;
72899;SDS011;61043;52.036;5.566;2022-08-21T13:40:54;6.93;;;2.25;;
72899;SDS011;61043;52.036;5.566;2022-08-21T13:43:25;7.47;;;2.10;;
72899;SDS011;61043;52.036;5.566;2022-08-21T13:45:55;7.88;;;2.00;;
72899;SDS011;61043;52.036;5.566;2022-08-21T13:48:25;5.53;;;2.10;;
72899;SDS011;61043;52.036;5.566;2022-08-21T13:50:54;6.47;;;2.20;;
72899;SDS011;61043;52.036;5.566;2022-08-21T13:53:31;6.32;;;1.83;;
72899;SDS011;61043;52.036;5.566;2022-08-21T13:55:59;7.53;;;2.10;;
72899;SDS011;61043;52.036;5.566;2022-08-21T13:58:31;5.90;;;2.20;;
72899;SDS011;61043;52.036;5.566;2022-08-21T14:01:15;5.65;;;2.03;;
72899;SDS011;61043;52.036;5.566;2022-08-21T14:03:45;8.80;;;2.45;;
72899;SDS011;61043;52.036;5.566;2022-08-21T14:06:19;8.35;;;2.15;;
72899;SDS011;61043;52.036;5.566;2022-08-21T14:08:51;7.47;;;2.28;;
72899;SDS011;61043;52.036;5.566;2022-08-21T14:11:20;8.90;;;2.22;;
72899;SDS011;61043;52.036;5.566;2022-08-21T14:13:49;5.60;;;1.83;;
72899;SDS011;61043;52.036;5.566;2022-08-21T14:16:24;9.23;;;2.10;;
72899;SDS011;61043;52.036;5.566;2022-08-21T14:19:07;6.88;;;2.15;;
72899;SDS011;61043;52.036;5.566;2022-08-21T14:21:38;6.75;;;1.92;;
72899;SDS011;61043;52.036;5.566;2022-08-21T14:26:41;7.65;;;2.13;;
72899;SDS011;61043;52.036;5.566;2022-08-21T14:29:11;5.78;;;2.00;;
72899;SDS011;61043;52.036;5.566;2022-08-21T14:34:12;5.88;;;2.10;;
72899;SDS011;61043;52.036;5.566;2022-08-21T14:36:45;5.18;;;1.88;;
72899;SDS011;61043;52.036;5.566;2022-08-21T14:39:12;4.10;;;1.90;;
72899;SDS011;61043;52.036;5.566;2022-08-21T14:41:39;5.53;;;2.13;;
72899;SDS011;61043;52.036;5.566;2022-08-21T14:44:06;7.22;;;2.00;;
72899;SDS011;61043;52.036;5.566;2022-08-21T14:46:35;6.45;;;2.40;;
72899;SDS011;61043;52.036;5.566;2022-08-21T14:49:25;6.82;;;2.28;;
72899;SDS011;61043;52.036;5.566;2022-08-21T14:51:54;6.93;;;2.47;;
72899;SDS011;61043;52.036;5.566;2022-08-21T14:54:25;4.93;;;2.67;;
72899;SDS011;61043;52.036;5.566;2022-08-21T14:57:02;17.92;;;10.65;;
72899;SDS011;61043;52.036;5.566;2022-08-21T14:59:31;6.90;;;3.22;;
72899;SDS011;61043;52.036;5.566;2022-08-21T15:01:59;6.60;;;2.60;;
72899;SDS011;61043;52.036;5.566;2022-08-21T15:04:26;9.50;;;2.60;;
72899;SDS011;61043;52.036;5.566;2022-08-21T15:06:53;6.15;;;2.00;;
72899;SDS011;61043;52.036;5.566;2022-08-21T15:09:19;5.75;;;2.10;;
72899;SDS011;61043;52.036;5.566;2022-08-21T15:11:46;11.13;;;2.90;;
72899;SDS011;61043;52.036;5.566;2022-08-21T15:14:18;6.85;;;2.33;;
72899;SDS011;61043;52.036;5.566;2022-08-21T15:16:47;4.00;;;2.00;;
72899;SDS011;61043;52.036;5.566;2022-08-21T15:19:15;5.22;;;2.22;;
72899;SDS011;61043;52.036;5.566;2022-08-21T15:21:41;4.90;;;2.20;;
72899;SDS011;61043;52.036;5.566;2022-08-21T15:24:08;9.93;;;2.78;;
72899;SDS011;61043;52.036;5.566;2022-08-21T15:26:35;6.07;;;2.70;;
72899;SDS011;61043;52.036;5.566;2022-08-21T15:29:02;6.95;;;2.67;;
72899;SDS011;61043;52.036;5.566;2022-08-21T15:31:32;8.48;;;3.10;;
72899;SDS011;61043;52.036;5.566;2022-08-21T15:33:58;6.00;;;2.80;;
72899;SDS011;61043;52.036;5.566;2022-08-21T15:36:25;7.47;;;2.95;;
72899;SDS011;61043;52.036;5.566;2022-08-21T15:38:54;7.57;;;3.10;;
72899;SDS011;61043;52.036;5.566;2022-08-21T15:41:20;8.82;;;3.45;;
72899;SDS011;61043;52.036;5.566;2022-08-21T15:43:48;8.00;;;3.05;;
72899;SDS011;61043;52.036;5.566;2022-08-21T15:46:18;7.47;;;3.70;;
72899;SDS011;61043;52.036;5.566;2022-08-21T15:48:46;6.50;;;2.80;;
72899;SDS011;61043;52.036;5.566;2022-08-21T15:51:14;5.70;;;2.53;;
72899;SDS011;61043;52.036;5.566;2022-08-21T15:53:42;5.85;;;2.78;;
72899;SDS011;61043;52.036;5.566;2022-08-21T15:56:28;6.55;;;3.22;;
72899;SDS011;61043;52.036;5.566;2022-08-21T15:59:02;6.40;;;3.20;;
72899;SDS011;61043;52.036;5.566;2022-08-21T16:01:33;6.18;;;2.50;;
72899;SDS011;61043;52.036;5.566;2022-08-21T16:04:10;4.88;;;2.70;;
72899;SDS011;61043;52.036;5.566;2022-08-21T16:06:41;12.90;;;7.70;;
72899;SDS011;61043;52.036;5.566;2022-08-21T16:09:22;8.82;;;4.25;;
72899;SDS011;61043;52.036;5.566;2022-08-21T16:11:49;5.78;;;2.80;;
72899;SDS011;61043;52.036;5.566;2022-08-21T16:14:16;7.03;;;2.50;;
72899;SDS011;61043;52.036;5.566;2022-08-21T16:16:43;6.65;;;2.45;;
72899;SDS011;61043;52.036;5.566;2022-08-21T16:19:10;8.05;;;3.30;;
72899;SDS011;61043;52.036;5.566;2022-08-21T16:21:38;8.68;;;4.25;;
72899;SDS011;61043;52.036;5.566;2022-08-21T16:24:05;7.43;;;2.72;;
72899;SDS011;61043;52.036;5.566;2022-08-21T16:26:31;5.18;;;2.47;;
72899;SDS011;61043;52.036;5.566;2022-08-21T16:28:59;7.65;;;2.72;;
72899;SDS011;61043;52.036;5.566;2022-08-21T16:31:26;5.68;;;2.50;;
72899;SDS011;61043;52.036;5.566;2022-08-21T16:33:54;6.75;;;2.50;;
72899;SDS011;61043;52.036;5.566;2022-08-21T16:36:23;5.05;;;2.13;;
72899;SDS011;61043;52.036;5.566;2022-08-21T16:38:52;6.30;;;2.25;;